createdAt,value
2024-01-27T00:02:18.569Z,99579.88
2024-01-27T00:04:46.046Z,99590.13
2024-01-27T00:07:13.525Z,99582.38
2024-01-27T00:09:42.333Z,99569.47
2024-01-27T00:12:12.319Z,99580.63
2024-01-27T00:14:40.527Z,99582.34
2024-01-27T00:17:11.031Z,99587.47
2024-01-27T00:19:41.154Z,99583.16
2024-01-27T00:22:12.331Z,99580.59
2024-01-27T00:24:42.357Z,99571.94
2024-01-27T00:27:09.805Z,99583.09
2024-01-27T00:29:40.554Z,99562.50
2024-01-27T00:32:07.923Z,99568.50
2024-01-27T00:34:35.361Z,99576.13
2024-01-27T00:37:05.673Z,99587.28
2024-01-27T00:39:34.301Z,99577.84
2024-01-27T00:42:01.633Z,99573.50
2024-01-27T00:44:29.409Z,99566.63
2024-01-27T00:46:58.833Z,99572.66
2024-01-27T00:49:27.692Z,99565.78
2024-01-27T00:51:57.847Z,99572.63
2024-01-27T00:54:27.261Z,99575.22
2024-01-27T00:56:54.800Z,99576.03
2024-01-27T00:59:22.297Z,99560.56
2024-01-27T01:02:24.810Z,99579.44
2024-01-27T01:04:54.833Z,99568.28
2024-01-27T01:07:25.357Z,99569.09
2024-01-27T01:09:53.081Z,99569.09
2024-01-27T01:12:20.398Z,99558.78
2024-01-27T01:14:50.497Z,99559.66
2024-01-27T01:17:17.827Z,99569.09
2024-01-27T01:19:45.312Z,99572.50
2024-01-27T01:22:13.873Z,99574.22
2024-01-27T01:24:41.282Z,99565.59
2024-01-27T01:27:09.647Z,99571.56
2024-01-27T01:29:37.136Z,99562.13
2024-01-27T01:32:05.033Z,99560.38
2024-01-27T01:34:35.866Z,99558.66
2024-01-27T01:37:04.141Z,99561.25
2024-01-27T01:39:31.684Z,99555.22
2024-01-27T01:41:59.008Z,99550.03
2024-01-27T01:44:31.885Z,99538.88
2024-01-27T01:47:01.005Z,99548.25
2024-01-27T01:49:28.596Z,99543.09
2024-01-27T01:51:56.225Z,99550.81
2024-01-27T01:54:24.355Z,99543.91
2024-01-27T01:56:52.319Z,99549.84
2024-01-27T01:59:22.298Z,99542.97
2024-01-27T02:01:49.606Z,99539.47
2024-01-27T02:04:19.720Z,99531.72
2024-01-27T02:06:47.100Z,99541.13
2024-01-27T02:09:17.381Z,99547.94
2024-01-27T02:11:44.688Z,99540.19
2024-01-27T02:14:14.830Z,99541.00
2024-01-27T02:16:42.157Z,99542.66
2024-01-27T02:19:15.224Z,99542.59
2024-01-27T02:21:42.626Z,99541.72
2024-01-27T02:24:12.859Z,99542.53
2024-01-27T02:26:40.189Z,99534.78
2024-01-27T02:29:07.526Z,99535.59
2024-01-27T02:31:35.162Z,99534.72
2024-01-27T02:34:02.745Z,99528.63
2024-01-27T02:36:32.757Z,99524.28
2024-01-27T02:39:00.147Z,99529.28
2024-01-27T02:41:30.413Z,99532.63
2024-01-27T02:43:57.782Z,99540.25
2024-01-27T02:46:27.926Z,99533.41
2024-01-27T02:48:55.452Z,99535.97
2024-01-27T02:51:26.024Z,99535.97
2024-01-27T02:53:53.395Z,99529.97
2024-01-27T02:56:20.769Z,99533.41
2024-01-27T02:58:48.139Z,99538.56
2024-01-27T03:01:15.707Z,99538.56
2024-01-27T03:03:44.319Z,99551.47
2024-01-27T03:06:14.463Z,99548.91
2024-01-27T03:08:41.898Z,99542.91
2024-01-27T03:11:10.058Z,99554.06
2024-01-27T03:13:37.390Z,99549.00
2024-01-27T03:16:05.000Z,99561.09
2024-01-27T03:18:32.496Z,99566.31
2024-01-27T03:21:02.223Z,99566.38
2024-01-27T03:23:29.626Z,99576.72
2024-01-27T03:25:56.952Z,99570.72
2024-01-27T03:28:24.325Z,99568.25
2024-01-27T03:30:51.654Z,99574.28
2024-01-27T03:33:19.087Z,99571.69
2024-01-27T03:35:46.516Z,99561.38
2024-01-27T03:38:14.182Z,99575.09
2024-01-27T03:40:41.401Z,99576.81
2024-01-27T03:43:11.271Z,99575.97
2024-01-27T03:45:38.699Z,99587.94
2024-01-27T03:48:09.254Z,99596.50
2024-01-27T03:50:36.711Z,99593.06
2024-01-27T03:53:04.959Z,99598.19
2024-01-27T03:55:33.225Z,99597.31
2024-01-27T03:58:00.492Z,99607.66
2024-01-27T04:00:29.354Z,99603.38
2024-01-27T04:02:58.713Z,99600.75
2024-01-27T04:05:28.594Z,99620.47
2024-01-27T04:07:58.871Z,99627.38
2024-01-27T04:10:26.218Z,99625.69
2024-01-27T04:12:56.470Z,99630.81
2024-01-27T04:15:23.920Z,99644.56
2024-01-27T04:17:51.391Z,99648.84
2024-01-27T04:20:18.837Z,99641.97
2024-01-27T04:22:46.171Z,99654.84
2024-01-27T04:25:13.691Z,99653.13
2024-01-27T04:27:42.577Z,99665.97
2024-01-27T04:30:10.497Z,99659.97
2024-01-27T04:32:41.078Z,99663.31
2024-01-27T04:35:14.874Z,99671.03
2024-01-27T04:37:42.346Z,99683.06
2024-01-27T04:40:10.190Z,99681.34
2024-01-27T04:42:39.751Z,99695.03
2024-01-27T04:45:08.494Z,99706.09
2024-01-27T04:47:38.924Z,99707.03
2024-01-27T04:50:06.613Z,99708.66
2024-01-27T04:52:34.122Z,99717.13
2024-01-27T04:55:04.507Z,99722.19
2024-01-27T04:57:33.133Z,99729.00
2024-01-27T05:00:00.777Z,99721.25
2024-01-27T05:02:28.802Z,99732.41
2024-01-27T05:04:56.173Z,99746.91
2024-01-27T05:07:23.514Z,99756.31
2024-01-27T05:09:51.189Z,99757.06
2024-01-27T05:12:18.606Z,99763.91
2024-01-27T05:14:48.946Z,99762.09
2024-01-27T05:17:16.465Z,99766.38
2024-01-27T05:19:43.914Z,99777.44
2024-01-27T05:22:11.204Z,99791.06
2024-01-27T05:24:38.623Z,99787.69
2024-01-27T05:27:06.053Z,99800.44
2024-01-27T05:29:33.476Z,99803.78
2024-01-27T05:32:03.670Z,99800.25
2024-01-27T05:34:31.190Z,99812.22
2024-01-27T05:37:01.472Z,99819.81
2024-01-27T05:39:30.870Z,99827.44
2024-01-27T05:41:58.330Z,99841.03
2024-01-27T05:44:25.673Z,99850.41
2024-01-27T05:46:52.980Z,99846.91
2024-01-27T05:49:20.456Z,99848.56
2024-01-27T05:51:47.896Z,99848.50
2024-01-27T05:54:19.214Z,99858.78
2024-01-27T05:56:46.552Z,99865.50
2024-01-27T05:59:13.987Z,99872.25
2024-01-27T06:01:42.456Z,99879.94
2024-01-27T06:04:09.962Z,99893.59
2024-01-27T06:06:41.028Z,99890.94
2024-01-27T06:09:12.836Z,99913.28
2024-01-27T06:11:43.383Z,99920.91
2024-01-27T06:14:11.154Z,99932.91
2024-01-27T06:16:38.581Z,99941.53
2024-01-27T06:19:06.154Z,99952.66
2024-01-27T06:21:33.779Z,99956.94
2024-01-27T06:24:01.997Z,99954.38
2024-01-27T06:26:29.456Z,99969.78
2024-01-27T06:28:56.781Z,99978.34
2024-01-27T06:31:24.087Z,99985.22
2024-01-27T06:33:51.486Z,99998.09
2024-01-27T06:36:24.491Z,99999.88
2024-01-27T06:38:53.098Z,100017.03
2024-01-27T06:41:20.610Z,100021.44
2024-01-27T06:43:47.918Z,100036.97
2024-01-27T06:46:16.902Z,100033.53
2024-01-27T06:48:44.941Z,100043.00
2024-01-27T06:51:12.462Z,100048.25
2024-01-27T06:53:39.919Z,100071.44
2024-01-27T06:56:08.536Z,100066.38
2024-01-27T06:58:36.215Z,100081.06
2024-01-27T07:01:04.016Z,100084.50
2024-01-27T07:03:31.494Z,100086.22
2024-01-27T07:06:02.568Z,100086.13
2024-01-27T07:08:38.460Z,100095.50
2024-01-27T07:11:06.523Z,100094.66
2024-01-27T07:13:34.976Z,100110.94
2024-01-27T07:16:02.316Z,100112.59
2024-01-27T07:18:30.664Z,100120.34
2024-01-27T07:21:00.884Z,100127.22
2024-01-27T07:23:28.952Z,100132.38
2024-01-27T07:25:57.246Z,100138.47
2024-01-27T07:28:24.648Z,100134.22
2024-01-27T07:30:51.946Z,100142.88
2024-01-27T07:33:19.399Z,100147.19
2024-01-27T07:35:46.855Z,100154.94
2024-01-27T07:38:17.080Z,100166.94
2024-01-27T07:40:44.411Z,100175.63
2024-01-27T07:43:14.844Z,100180.00
2024-01-27T07:45:42.382Z,100194.59
2024-01-27T07:48:12.718Z,100195.47
2024-01-27T07:50:40.213Z,100207.56
2024-01-27T07:53:07.662Z,100220.44
2024-01-27T07:55:35.049Z,100223.88
2024-01-27T07:58:02.403Z,100229.91
2024-01-27T08:00:29.786Z,100232.47
2024-01-27T08:02:57.214Z,100238.53
2024-01-27T08:05:25.222Z,100257.41
2024-01-27T08:07:52.655Z,100259.13
2024-01-27T08:10:20.162Z,100278.94
2024-01-27T08:12:47.493Z,100272.88
2024-01-27T08:15:14.943Z,100281.53
2024-01-27T08:17:42.310Z,100286.59
2024-01-27T08:20:11.223Z,100298.41
2024-01-27T08:22:38.505Z,100311.22
2024-01-27T08:25:11.901Z,100304.25
2024-01-27T08:27:39.228Z,100308.25
2024-01-27T08:30:10.119Z,100322.69
2024-01-27T08:32:37.794Z,100335.38
2024-01-27T08:35:07.337Z,100344.72
2024-01-27T08:37:40.401Z,100339.44
2024-01-27T08:40:09.139Z,100353.00
2024-01-27T08:42:36.492Z,100351.19
2024-01-27T08:45:04.894Z,100362.22
2024-01-27T08:47:32.677Z,100356.09
2024-01-27T08:50:00.558Z,100375.69
2024-01-27T08:52:27.973Z,100381.66
2024-01-27T08:54:55.417Z,100375.69
2024-01-27T08:57:25.452Z,100392.19
2024-01-27T08:59:52.897Z,100405.97
2024-01-27T09:02:22.916Z,100404.19
2024-01-27T09:04:50.282Z,100420.50
2024-01-27T09:07:18.473Z,100419.59
2024-01-27T09:09:48.748Z,100425.56
2024-01-27T09:12:16.574Z,100429.69
2024-01-27T09:14:46.909Z,100442.44
2024-01-27T09:17:14.236Z,100445.09
2024-01-27T09:19:41.787Z,100447.72
2024-01-27T09:22:09.346Z,100449.63
2024-01-27T09:24:36.753Z,100458.41
2024-01-27T09:27:06.938Z,100462.09
2024-01-27T09:29:34.306Z,100474.31
2024-01-27T09:32:01.909Z,100480.50
2024-01-27T09:34:29.503Z,100484.88
2024-01-27T09:36:57.085Z,100486.88
2024-01-27T09:39:24.548Z,100491.38
2024-01-27T09:41:53.153Z,100496.53
2024-01-27T09:44:23.297Z,100499.38
2024-01-27T09:46:50.734Z,100496.81
2024-01-27T09:49:18.469Z,100510.69
2024-01-27T09:51:46.013Z,100507.31
2024-01-27T09:54:14.940Z,100508.28
2024-01-27T09:56:47.242Z,100510.91
2024-01-27T09:59:17.192Z,100520.50
2024-01-27T10:01:44.721Z,100519.81
2024-01-27T10:04:13.247Z,100531.91
2024-01-27T10:06:41.601Z,100526.94
2024-01-27T10:09:09.418Z,100541.44
2024-01-27T10:11:38.127Z,100538.13
2024-01-27T10:14:05.524Z,100542.44
2024-01-27T10:16:50.650Z,100552.66
2024-01-27T10:19:19.661Z,100550.16
2024-01-27T10:21:48.092Z,100564.69
2024-01-27T10:24:16.519Z,100566.41
2024-01-27T10:26:44.013Z,100569.00
2024-01-27T10:29:14.141Z,100570.69
2024-01-27T10:31:41.418Z,100575.09
2024-01-27T10:34:16.751Z,100579.44
2024-01-27T10:36:46.877Z,100593.28
2024-01-27T10:39:25.422Z,100595.94
2024-01-27T10:41:53.233Z,100600.22
2024-01-27T10:44:21.368Z,100599.38
2024-01-27T10:46:50.801Z,100616.59
2024-01-27T10:49:19.415Z,100613.22
2024-01-27T10:51:52.062Z,100621.84
2024-01-27T10:54:27.275Z,100616.66
2024-01-27T10:56:57.004Z,100628.88
2024-01-27T10:59:27.681Z,100637.44
2024-01-27T11:01:56.260Z,100638.22
2024-01-27T11:04:24.413Z,100651.25
2024-01-27T11:06:52.302Z,100653.03
2024-01-27T11:09:23.566Z,100664.13
2024-01-27T11:11:51.120Z,100662.56
2024-01-27T11:14:18.482Z,100653.84
2024-01-27T11:16:49.259Z,100671.16
2024-01-27T11:19:20.245Z,100678.78
2024-01-27T11:21:47.688Z,100680.59
2024-01-27T11:24:19.608Z,100684.97
2024-01-27T11:26:47.086Z,100689.28
2024-01-27T11:29:21.416Z,100697.91
2024-01-27T11:31:50.339Z,100697.06
2024-01-27T11:34:22.067Z,100695.25
2024-01-27T11:36:49.697Z,100716.97
2024-01-27T11:39:28.290Z,100715.28
2024-01-27T11:42:10.290Z,100713.56
2024-01-27T11:44:38.386Z,100719.59
2024-01-27T11:47:06.455Z,100711.78
2024-01-27T11:49:35.187Z,100726.47
2024-01-27T11:52:02.642Z,100732.59
2024-01-27T11:54:30.152Z,100745.38
2024-01-27T11:56:57.526Z,100753.22
2024-01-27T11:59:27.550Z,100755.81
2024-01-27T12:01:54.859Z,100757.69
2024-01-27T12:04:22.911Z,100768.09
2024-01-27T12:06:50.439Z,100781.94
2024-01-27T12:09:19.837Z,100776.78
2024-01-27T12:11:47.343Z,100788.13
2024-01-27T12:14:15.284Z,100776.22
2024-01-27T12:16:42.969Z,100788.31
2024-01-27T12:19:12.515Z,100785.69
2024-01-27T12:21:39.899Z,100792.72
2024-01-27T12:24:20.048Z,100800.59
2024-01-27T12:26:49.435Z,100800.78
2024-01-27T12:29:18.269Z,100796.44
2024-01-27T12:31:46.730Z,100803.53
2024-01-27T12:34:14.133Z,100815.66
2024-01-27T12:36:46.164Z,100816.38
2024-01-27T12:39:16.446Z,100830.16
2024-01-27T12:41:45.651Z,100832.56
2024-01-27T12:44:13.016Z,100826.59
2024-01-27T12:46:40.391Z,100832.53
2024-01-27T12:49:07.998Z,100850.56
2024-01-27T12:51:39.554Z,100848.78
2024-01-27T12:54:08.321Z,100860.69
2024-01-27T12:56:36.440Z,100858.16
2024-01-27T12:59:04.824Z,100869.31
2024-01-27T13:01:34.708Z,100874.47
2024-01-27T13:04:02.219Z,100869.31
2024-01-27T13:06:32.175Z,100857.13
2024-01-27T13:08:59.642Z,100878.56
2024-01-27T13:11:30.238Z,100888.13
2024-01-27T13:13:57.617Z,100899.22
2024-01-27T13:16:25.563Z,100900.09
2024-01-27T13:18:55.922Z,100903.63
2024-01-27T13:21:23.284Z,100915.72
2024-01-27T13:23:53.563Z,100914.75
2024-01-27T13:26:21.795Z,100912.06
2024-01-27T13:28:50.511Z,100929.34
2024-01-27T13:31:18.509Z,100929.34
2024-01-27T13:33:49.416Z,100927.56
2024-01-27T13:36:18.377Z,100936.91
2024-01-27T13:38:46.444Z,100942.78
2024-01-27T13:41:13.712Z,100959.94
2024-01-27T13:43:41.631Z,100952.19
2024-01-27T13:46:08.960Z,100962.53
2024-01-27T13:48:36.863Z,100959.06
2024-01-27T13:51:04.799Z,100966.00
2024-01-27T13:53:39.130Z,100964.22
2024-01-27T13:56:14.772Z,100971.94
2024-01-27T13:58:43.247Z,100974.41
2024-01-27T14:01:10.660Z,100982.13
2024-01-27T14:03:38.947Z,100983.84
2024-01-27T14:06:07.736Z,100985.53
2024-01-27T14:08:35.343Z,100994.16
2024-01-27T14:11:02.676Z,101005.38
2024-01-27T14:13:29.872Z,101005.28
2024-01-27T14:15:57.192Z,101005.13
2024-01-27T14:18:24.591Z,101010.97
2024-01-27T14:20:52.320Z,101014.28
2024-01-27T14:23:19.909Z,101021.91
2024-01-27T14:25:48.081Z,101022.69
2024-01-27T14:28:16.373Z,101022.59
2024-01-27T14:30:45.537Z,101025.97
2024-01-27T14:33:13.997Z,101023.22
2024-01-27T14:35:41.579Z,101031.78
2024-01-27T14:38:10.907Z,101039.38
2024-01-27T14:40:38.930Z,101043.59
2024-01-27T14:43:11.090Z,101049.50
2024-01-27T14:45:38.338Z,101044.22
2024-01-27T14:48:06.711Z,101046.66
2024-01-27T14:50:34.115Z,101060.38
2024-01-27T14:53:06.861Z,101070.53
2024-01-27T14:55:34.890Z,101066.84
2024-01-27T14:58:05.240Z,101078.63
2024-01-27T15:00:33.338Z,101084.47
2024-01-27T15:03:03.525Z,101084.28
2024-01-27T15:05:31.953Z,101086.78
2024-01-27T15:07:59.988Z,101101.25
2024-01-27T15:10:27.202Z,101114.00
2024-01-27T15:12:54.676Z,101124.31
2024-01-27T15:15:25.832Z,101126.69
2024-01-27T15:18:01.866Z,101135.16
2024-01-27T15:20:30.266Z,101138.53
2024-01-27T15:22:58.073Z,101142.00
2024-01-27T15:25:25.934Z,101154.84
2024-01-27T15:27:53.357Z,101152.22
2024-01-27T15:30:20.773Z,101155.63
2024-01-27T15:32:49.118Z,101158.88
2024-01-27T15:35:22.401Z,101162.91
2024-01-27T15:37:52.060Z,101162.91
2024-01-27T15:40:20.975Z,101170.69
2024-01-27T15:42:48.550Z,101168.78
2024-01-27T15:45:15.910Z,101175.63
2024-01-27T15:47:44.236Z,101188.25
2024-01-27T15:50:14.845Z,101186.53
2024-01-27T15:52:42.243Z,101198.53
2024-01-27T15:55:09.769Z,101184.59
2024-01-27T15:57:39.009Z,101202.75
2024-01-27T16:00:11.682Z,101195.03
2024-01-27T16:02:39.404Z,101199.41
2024-01-27T16:05:06.998Z,101189.94
2024-01-27T16:07:34.309Z,101194.25
2024-01-27T16:10:03.295Z,101198.66
2024-01-27T16:12:36.211Z,101205.56
2024-01-27T16:15:05.606Z,101215.22
2024-01-27T16:17:32.999Z,101217.31
2024-01-27T16:20:01.598Z,101218.47
2024-01-27T16:22:29.098Z,101226.69
2024-01-27T16:24:56.349Z,101213.97
2024-01-27T16:27:30.100Z,101220.16
2024-01-27T16:29:59.037Z,101222.09
2024-01-27T16:32:26.450Z,101230.13
2024-01-27T16:34:54.087Z,101225.09
2024-01-27T16:37:22.431Z,101238.91
2024-01-27T16:39:49.662Z,101236.47
2024-01-27T16:42:17.143Z,101230.59
2024-01-27T16:44:44.464Z,101233.94
2024-01-27T16:47:11.817Z,101244.25
2024-01-27T16:49:39.207Z,101250.41
2024-01-27T16:52:06.845Z,101239.50
2024-01-27T16:54:34.274Z,101250.88
2024-01-27T16:57:01.742Z,101256.41
2024-01-27T16:59:30.563Z,101260.81
2024-01-27T17:01:59.117Z,101260.13
2024-01-27T17:04:26.367Z,101267.34
2024-01-27T17:06:53.721Z,101269.97
2024-01-27T17:09:21.025Z,101276.16
2024-01-27T17:11:48.332Z,101283.25
2024-01-27T17:14:15.705Z,101284.13
2024-01-27T17:16:43.004Z,101279.09
2024-01-27T17:19:10.409Z,101285.94
2024-01-27T17:21:38.176Z,101278.31
2024-01-27T17:24:05.986Z,101280.16
2024-01-27T17:26:34.135Z,101285.47
2024-01-27T17:29:01.968Z,101285.41
2024-01-27T17:31:29.319Z,101294.19
2024-01-27T17:33:56.769Z,101302.94
2024-01-27T17:36:25.001Z,101299.47
2024-01-27T17:38:53.094Z,101305.56
2024-01-27T17:41:20.524Z,101309.00
2024-01-27T17:43:47.826Z,101305.69
2024-01-27T17:46:15.430Z,101307.53
2024-01-27T17:48:42.873Z,101305.09
2024-01-27T17:51:11.629Z,101313.75
2024-01-27T17:53:39.101Z,101314.56
2024-01-27T17:56:06.560Z,101324.22
2024-01-27T17:58:33.946Z,101315.66
2024-01-27T18:01:01.599Z,101320.13
2024-01-27T18:03:29.189Z,101330.44
2024-01-27T18:05:56.691Z,101338.31
2024-01-27T18:08:23.969Z,101331.47
2024-01-27T18:10:51.302Z,101341.81
2024-01-27T18:13:18.551Z,101335.72
2024-01-27T18:15:46.077Z,101338.53
2024-01-27T18:18:13.773Z,101332.59
2024-01-27T18:20:41.735Z,101339.50
2024-01-27T18:23:09.139Z,101335.22
2024-01-27T18:25:38.206Z,101346.47
2024-01-27T18:28:06.052Z,101343.94
2024-01-27T18:30:33.380Z,101345.69
2024-01-27T18:33:05.236Z,101350.94
2024-01-27T18:35:33.272Z,101351.91
2024-01-27T18:38:00.602Z,101349.31
2024-01-27T18:40:27.945Z,101355.34
2024-01-27T18:42:55.327Z,101356.22
2024-01-27T18:45:22.804Z,101377.75
2024-01-27T18:47:50.266Z,101371.72
2024-01-27T18:50:17.743Z,101370.91
2024-01-27T18:52:45.451Z,101378.69
2024-01-27T18:55:15.932Z,101392.47
2024-01-27T18:57:43.402Z,101379.63
2024-01-27T19:00:11.397Z,101383.97
2024-01-27T19:02:38.894Z,101396.81
2024-01-27T19:05:09.762Z,101393.41
2024-01-27T19:07:37.521Z,101396.94
2024-01-27T19:10:05.991Z,101392.59
2024-01-27T19:12:33.690Z,101390.94
2024-01-27T19:15:02.491Z,101390.94
2024-01-27T19:17:30.251Z,101405.56
2024-01-27T19:19:57.849Z,101408.13
2024-01-27T19:22:25.488Z,101405.59
2024-01-27T19:24:52.903Z,101407.34
2024-01-27T19:27:20.249Z,101409.06
2024-01-27T19:29:47.608Z,101409.09
2024-01-27T19:32:15.042Z,101414.34
2024-01-27T19:34:42.976Z,101416.03
2024-01-27T19:37:10.449Z,101420.38
2024-01-27T19:39:37.833Z,101428.06
2024-01-27T19:42:05.719Z,101434.09
2024-01-27T19:44:33.211Z,101431.53
2024-01-27T19:47:00.526Z,101434.09
2024-01-27T19:49:29.250Z,101436.69
2024-01-27T19:51:56.978Z,101437.59
2024-01-27T19:54:24.448Z,101436.78
2024-01-27T19:56:52.066Z,101442.91
2024-01-27T19:59:19.761Z,101441.19
2024-01-27T20:01:47.270Z,101445.47
2024-01-27T20:04:15.415Z,101446.34
2024-01-27T20:06:43.101Z,101438.63
2024-01-27T20:09:16.250Z,101444.66
2024-01-27T20:11:45.344Z,101444.66
2024-01-27T20:14:13.752Z,101445.53
2024-01-27T20:16:44.137Z,101439.59
2024-01-27T20:19:11.658Z,101443.78
2024-01-27T20:21:39.193Z,101445.53
2024-01-27T20:24:07.625Z,101444.75
2024-01-27T20:26:35.148Z,101450.75
2024-01-27T20:29:02.511Z,101451.63
2024-01-27T20:31:29.979Z,101454.09
2024-01-27T20:33:57.528Z,101463.59
2024-01-27T20:36:26.394Z,101453.31
2024-01-27T20:38:54.896Z,101466.22
2024-01-27T20:41:23.234Z,101462.75
2024-01-27T20:43:50.924Z,101474.84
2024-01-27T20:46:19.345Z,101471.38
2024-01-27T20:48:46.835Z,101479.13
2024-01-27T20:51:14.499Z,101480.81
2024-01-27T20:53:41.952Z,101473.09
2024-01-27T20:56:09.368Z,101482.47
2024-01-27T20:58:38.352Z,101491.16
2024-01-27T21:01:06.303Z,101490.31
2024-01-27T21:03:33.839Z,101493.78
2024-01-27T21:06:01.471Z,101497.22
2024-01-27T21:08:38.139Z,101494.66
2024-01-27T21:11:10.685Z,101497.31
2024-01-27T21:13:40.090Z,101504.97
2024-01-27T21:16:10.874Z,101507.50
2024-01-27T21:18:38.644Z,101509.25
2024-01-27T21:21:07.223Z,101515.28
2024-01-27T21:23:35.911Z,101514.38
2024-01-27T21:26:04.409Z,101520.47
2024-01-27T21:28:32.307Z,101510.22
2024-01-27T21:30:59.766Z,101511.09
2024-01-27T21:33:28.977Z,101517.97
2024-01-27T21:35:58.302Z,101515.44
2024-01-27T21:38:25.511Z,101524.06
2024-01-27T21:40:52.811Z,101526.69
2024-01-27T21:43:20.221Z,101529.25
2024-01-27T21:45:48.705Z,101531.94
2024-01-27T21:48:17.004Z,101533.63
2024-01-27T21:50:44.664Z,101540.53
2024-01-27T21:53:12.123Z,101537.88
2024-01-27T21:55:39.432Z,101534.41
2024-01-27T21:58:06.757Z,101537.00
2024-01-27T22:00:35.024Z,101542.25
2024-01-27T22:03:02.957Z,101541.41
2024-01-27T22:05:30.701Z,101534.38
2024-01-27T22:07:59.480Z,101535.19
2024-01-27T22:10:26.881Z,101536.94
2024-01-27T22:12:55.204Z,101531.78
2024-01-27T22:15:23.837Z,101540.38
2024-01-27T22:17:51.231Z,101544.75
2024-01-27T22:20:18.666Z,101537.00
2024-01-27T22:22:46.153Z,101537.78
2024-01-27T22:25:13.458Z,101537.88
2024-01-27T22:27:41.448Z,101540.41
2024-01-27T22:30:15.868Z,101537.81
2024-01-27T22:32:43.678Z,101539.53
2024-01-27T22:35:11.635Z,101537.72
2024-01-27T22:37:38.914Z,101548.06
2024-01-27T22:40:08.652Z,101549.75
2024-01-27T22:42:36.933Z,101555.91
2024-01-27T22:45:04.977Z,101547.31
2024-01-27T22:47:33.154Z,101544.69
2024-01-27T22:50:05.176Z,101553.31
2024-01-27T22:52:33.559Z,101558.53
2024-01-27T22:55:01.689Z,101557.66
2024-01-27T22:57:30.583Z,101559.25
2024-01-27T22:59:58.067Z,101576.53
2024-01-27T23:02:25.406Z,101565.34
2024-01-27T23:04:54.275Z,101563.69
2024-01-27T23:07:21.934Z,101561.06
2024-01-27T23:09:49.473Z,101564.59
2024-01-27T23:12:18.085Z,101568.84
2024-01-27T23:14:45.570Z,101565.56
2024-01-27T23:17:13.895Z,101560.38
2024-01-27T23:19:41.657Z,101559.53
2024-01-27T23:22:09.022Z,101564.66
2024-01-27T23:24:36.316Z,101567.28
2024-01-27T23:27:04.199Z,101571.69
2024-01-27T23:29:34.170Z,101580.31
2024-01-27T23:32:01.712Z,101579.34
2024-01-27T23:34:30.199Z,101574.28
2024-01-27T23:36:57.805Z,101578.47
2024-01-27T23:39:25.051Z,101578.63
2024-01-27T23:41:52.542Z,101578.66
2024-01-27T23:44:20.859Z,101591.56
2024-01-27T23:46:48.147Z,101590.81
2024-01-27T23:49:16.312Z,101589.16
2024-01-27T23:51:43.711Z,101603.72
2024-01-27T23:54:14.600Z,101600.13
2024-01-27T23:56:42.520Z,101601.00
2024-01-27T23:59:11.647Z,101595.84
